MMMY/MTY METAR and TAF weather

Enter ICAO airport designator
Station Type Date Time Source
MMMY METAR 2019/04/19 09:40 UTC NOAA

MMMY 190940Z 00000KT 10SM SKC 18/07 A3006


Station Type Date Time Source
MMMY Decoded METAR 2019/04/19 09:40 UTC NOAA

Monterrey / Gen Maria, Mexico (MMMY) 25-47N 100-06W
Apr 19, 2019 - 05:40 AM EDT / 2019.04.19 0940 UTC
Wind: Calm:0
Visibility: 10 mile(s):0
Sky conditions: clear
Temperature: 64 F (18 C)
Dew Point: 44 F (7 C)
Relative Humidity: 48%
Pressure (altimeter): 30.06 in. Hg (1017 hPa)
ob: MMMY 190940Z 00000KT 10SM SKC 18/07 A3006
cycle: 9

Station Type Date Time Source
MMMY TAF 2019/04/19 12:30 UTC NOAA

TAF MMMY 191028Z 1912/2018 34005KT P6SM SKC TX30/1921Z TN17/1912Z
FM191800 13010KT P6SM SKC
FM200300 13005KT P6SM SKC
FM201800 13010KT P6SM SCT200

Example: see airport list